createdAt,value
2023-03-29T00:12:01.729Z,5.39
2023-03-29T00:18:16.304Z,5.46
2023-03-29T00:20:46.313Z,5.51
2023-03-29T00:23:13.800Z,5.53
2023-03-29T00:25:46.477Z,5.55
2023-03-29T00:28:15.122Z,5.55
2023-03-29T00:30:42.252Z,5.55
2023-03-29T00:33:09.525Z,5.57
2023-03-29T00:35:38.314Z,5.61
2023-03-29T00:38:06.910Z,5.65
2023-03-29T00:40:34.612Z,5.69
2023-03-29T00:43:02.475Z,5.73
2023-03-29T00:45:30.634Z,5.80
2023-03-29T00:48:02.561Z,5.83
2023-03-29T00:50:32.498Z,5.87
2023-03-29T00:53:05.016Z,5.90
2023-03-29T00:55:36.907Z,5.90
2023-03-29T00:58:07.927Z,5.90
2023-03-29T01:00:38.760Z,5.89
2023-03-29T01:03:13.613Z,5.87
2023-03-29T01:05:44.631Z,5.81
2023-03-29T01:08:18.025Z,5.80
2023-03-29T01:10:53.401Z,5.83
2023-03-29T01:13:27.362Z,5.81
2023-03-29T01:15:57.220Z,5.80
2023-03-29T01:18:24.454Z,5.76
2023-03-29T01:21:20.802Z,5.77
2023-03-29T01:23:59.270Z,5.75
2023-03-29T01:26:34.207Z,5.74
2023-03-29T01:29:09.100Z,5.74
2023-03-29T01:31:39.339Z,5.70
2023-03-29T01:34:13.016Z,5.70
2023-03-29T01:36:45.096Z,5.67
2023-03-29T01:39:11.959Z,5.61
2023-03-29T01:41:48.266Z,5.58
2023-03-29T01:44:21.310Z,5.56
2023-03-29T01:46:55.702Z,5.55
2023-03-29T01:49:29.030Z,5.54
2023-03-29T01:52:01.305Z,5.54
2023-03-29T01:54:33.978Z,5.51
2023-03-29T01:57:05.714Z,5.48
2023-03-29T01:59:38.826Z,5.49
2023-03-29T02:02:11.482Z,5.50
2023-03-29T02:04:45.975Z,5.56
2023-03-29T02:07:15.456Z,5.58
2023-03-29T02:09:43.860Z,5.61
2023-03-29T02:12:12.765Z,5.62
2023-03-29T02:14:42.742Z,5.63
2023-03-29T02:17:16.640Z,5.61
2023-03-29T02:19:46.111Z,5.61
2023-03-29T02:22:15.437Z,5.64
2023-03-29T02:24:45.221Z,5.67
2023-03-29T02:27:13.050Z,5.71
2023-03-29T02:29:42.520Z,5.74
2023-03-29T02:32:16.253Z,5.76
2023-03-29T02:34:49.674Z,5.75
2023-03-29T02:37:19.151Z,5.74
2023-03-29T02:39:49.357Z,5.73
2023-03-29T02:42:21.194Z,5.67
2023-03-29T02:44:52.123Z,5.66
2023-03-29T02:47:23.304Z,5.70
2023-03-29T02:49:51.198Z,5.73
2023-03-29T02:52:23.924Z,5.73
2023-03-29T02:54:54.549Z,5.70
2023-03-29T02:57:27.186Z,5.68
2023-03-29T02:59:58.850Z,5.70
2023-03-29T03:02:26.517Z,5.67
2023-03-29T03:04:55.468Z,5.67
2023-03-29T03:07:22.703Z,5.70
2023-03-29T03:09:49.460Z,5.77
2023-03-29T03:12:17.247Z,5.81
2023-03-29T03:14:44.763Z,5.85
2023-03-29T03:17:13.213Z,5.87
2023-03-29T03:19:40.195Z,5.93
2023-03-29T03:22:08.052Z,6.01
2023-03-29T03:24:35.446Z,6.04
2023-03-29T03:27:02.453Z,6.08
2023-03-29T03:29:29.830Z,6.11
2023-03-29T03:32:19.030Z,6.17
2023-03-29T03:35:18.106Z,6.23
2023-03-29T03:37:46.066Z,6.25
2023-03-29T03:40:13.830Z,6.29
2023-03-29T03:42:43.438Z,6.33
2023-03-29T03:45:12.889Z,6.36
2023-03-29T03:47:57.960Z,6.36
2023-03-29T03:50:49.938Z,6.38
2023-03-29T03:53:18.303Z,6.41
2023-03-29T03:56:08.948Z,6.40
2023-03-29T03:58:46.341Z,6.38
2023-03-29T04:01:14.166Z,6.41
2023-03-29T04:03:51.562Z,6.45
2023-03-29T04:06:19.366Z,6.50
2023-03-29T04:09:13.102Z,6.49
2023-03-29T04:11:46.700Z,6.48
2023-03-29T04:14:14.359Z,6.47
2023-03-29T04:17:04.573Z,6.43
2023-03-29T04:19:47.876Z,6.42
2023-03-29T04:22:14.763Z,6.44
2023-03-29T04:24:42.449Z,6.49
2023-03-29T04:27:21.684Z,6.50
2023-03-29T04:29:48.896Z,6.55
2023-03-29T04:32:30.260Z,6.58
2023-03-29T04:35:06.319Z,6.62
2023-03-29T04:37:33.622Z,6.62
2023-03-29T04:40:01.774Z,6.58
2023-03-29T04:42:35.585Z,6.56
2023-03-29T04:45:02.613Z,6.53
2023-03-29T04:50:35.117Z,6.53
2023-03-29T04:53:05.042Z,6.54
2023-03-29T04:55:32.273Z,6.56
2023-03-29T04:58:02.933Z,6.54
2023-03-29T05:03:32.505Z,6.43
2023-03-29T05:08:48.399Z,6.32
2023-03-29T05:11:44.858Z,6.30
2023-03-29T05:14:12.726Z,6.29
2023-03-29T05:16:42.782Z,6.26
2023-03-29T05:19:11.272Z,6.28
2023-03-29T05:21:45.088Z,6.28
2023-03-29T05:24:16.638Z,6.29
2023-03-29T05:26:57.192Z,6.29
2023-03-29T05:29:26.817Z,6.28
2023-03-29T05:32:03.528Z,6.24
2023-03-29T05:34:32.237Z,6.21
2023-03-29T05:37:21.437Z,6.19
2023-03-29T05:39:54.315Z,6.20
2023-03-29T05:42:34.722Z,6.23
2023-03-29T05:45:08.711Z,6.25
2023-03-29T05:47:38.971Z,6.26
2023-03-29T05:50:10.019Z,6.28
2023-03-29T05:52:38.833Z,6.29
2023-03-29T05:55:07.931Z,6.31
2023-03-29T05:57:36.904Z,6.33
2023-03-29T06:00:16.853Z,6.38
2023-03-29T06:02:44.573Z,6.43
2023-03-29T06:05:11.954Z,6.46
2023-03-29T06:07:55.875Z,6.47
2023-03-29T06:10:57.193Z,6.46
2023-03-29T06:13:39.201Z,6.52
2023-03-29T06:16:09.359Z,6.57
2023-03-29T06:18:46.055Z,6.60
2023-03-29T06:21:13.885Z,6.66
2023-03-29T06:23:43.004Z,6.75
2023-03-29T06:26:11.269Z,6.79
2023-03-29T06:28:39.098Z,6.88
2023-03-29T06:31:06.749Z,6.93
2023-03-29T06:33:38.885Z,6.99
2023-03-29T06:36:28.948Z,7.09
2023-03-29T06:38:57.154Z,7.16
2023-03-29T06:41:49.136Z,7.20
2023-03-29T06:44:25.684Z,7.25
2023-03-29T06:46:59.898Z,7.34
2023-03-29T06:49:27.513Z,7.42
2023-03-29T06:52:04.986Z,7.46
2023-03-29T06:54:35.988Z,7.47
2023-03-29T06:57:08.143Z,7.49
2023-03-29T06:59:35.742Z,7.51
2023-03-29T07:02:16.867Z,7.55
2023-03-29T07:04:56.213Z,7.59
2023-03-29T07:07:37.382Z,7.67
2023-03-29T07:10:16.659Z,7.75
2023-03-29T07:13:08.769Z,7.79
2023-03-29T07:15:36.374Z,7.82
2023-03-29T07:18:19.973Z,7.85
2023-03-29T07:20:48.547Z,7.90
2023-03-29T07:23:15.481Z,7.96
2023-03-29T07:25:44.967Z,7.94
2023-03-29T07:28:11.866Z,7.94
2023-03-29T07:30:39.218Z,7.98
2023-03-29T07:33:13.523Z,8.03
2023-03-29T07:36:02.288Z,8.06
2023-03-29T07:38:30.232Z,8.10
2023-03-29T07:41:07.583Z,8.14
2023-03-29T07:43:52.005Z,8.18
2023-03-29T07:46:25.306Z,8.20
2023-03-29T07:48:52.699Z,8.17
2023-03-29T07:51:19.975Z,8.13
2023-03-29T07:53:54.660Z,8.05
2023-03-29T07:56:32.738Z,8.00
2023-03-29T07:59:19.935Z,7.99
2023-03-29T08:01:56.797Z,8.00
2023-03-29T08:07:19.422Z,8.02
2023-03-29T08:09:57.938Z,8.09
2023-03-29T08:13:08.421Z,8.19
2023-03-29T08:15:52.107Z,8.25
2023-03-29T08:18:26.597Z,8.33
2023-03-29T08:20:53.420Z,8.39
2023-03-29T08:23:20.414Z,8.48
2023-03-29T08:26:08.721Z,8.58
2023-03-29T08:28:38.585Z,8.65
2023-03-29T08:31:17.069Z,8.75
2023-03-29T08:33:52.538Z,8.84
2023-03-29T08:36:38.257Z,8.97
2023-03-29T08:39:15.832Z,9.05
2023-03-29T08:44:54.125Z,9.30
2023-03-29T08:50:26.454Z,9.58
2023-03-29T08:53:05.318Z,9.76
2023-03-29T08:55:56.827Z,9.98
2023-03-29T09:14:37.755Z,10.43
2023-03-29T12:17:56.286Z,15.71
